Main page
METAR-TAF:

METAR-TAF

Airports :

RAF Marham

Marham, England

latitude: 52-39N, longitude: 000-34E, elevation: 23 m

Current weather observation

The report was made 32 minutes ago, at 01:50 UTC
Wind 5 kt from the South
Temperature 7°C
Humidity 93%
Pressure 1031 hPa
Visibility: 7000 m
Few clouds at a height of 25000 ft
mist

METAR: EGYM 210150Z 19005KT 7000 BR FEW250 07/06 Q1031 WHT

Time: 02:22 (02:22 UTC)

Forecast

The report was made 9 hours and 43 minutes ago, at 16:39 UTC
Forecast valid from 20 at 18 UTC to 20 at 21 UTC
Wind 10 kt from the South/Southwest
Visibility 10 km or more
Few clouds at a height of 2200 ft

TAF: EGYM 201639Z 2018/2021 21010KT 9999 FEW022

Weather observations and forecasts of more than 4000 airports (METAR and TAF reports).

The available stations are represented by yellow and red dots on the map.

Hover mouse over dot to see the name of the station.

Then click to see weather observations and forecasts.

To change the map : click on the green buttons with a black cross to zoom in, on the green button with a dash to zoom out, or on the green arrows for adjacent maps.


METAR-TAF: